createdAt,value
2022-08-18T00:01:38.462Z,100512.69
2022-08-18T00:04:48.933Z,100508.00
2022-08-18T00:07:55.014Z,100501.44
2022-08-18T00:11:00.490Z,100507.66
2022-08-18T00:14:06.052Z,100501.34
2022-08-18T00:17:11.981Z,100514.28
2022-08-18T00:20:17.665Z,100505.81
2022-08-18T00:23:23.784Z,100506.56
2022-08-18T00:26:32.340Z,100511.94
2022-08-18T00:29:42.506Z,100511.38
2022-08-18T00:32:48.052Z,100516.19
2022-08-18T00:35:53.810Z,100508.56
2022-08-18T00:38:59.361Z,100510.97
2022-08-18T00:42:04.819Z,100518.53
2022-08-18T00:45:10.545Z,100521.16
2022-08-18T00:48:16.136Z,100518.66
2022-08-18T00:51:24.036Z,100513.97
2022-08-18T00:54:29.389Z,100525.31
2022-08-18T00:57:34.799Z,100525.78
2022-08-18T01:00:40.613Z,100533.38
2022-08-18T01:03:48.468Z,100531.41
2022-08-18T01:06:53.931Z,100537.56
2022-08-18T01:10:00.479Z,100529.38
2022-08-18T01:13:06.432Z,100529.28
2022-08-18T01:16:29.700Z,100526.47
2022-08-18T01:19:53.021Z,100521.25
2022-08-18T01:22:58.379Z,100516.22
2022-08-18T01:26:04.731Z,100514.03
2022-08-18T01:29:11.695Z,100505.00
2022-08-18T01:32:30.412Z,100513.84
2022-08-18T01:35:41.874Z,100517.31
2022-08-18T01:38:47.885Z,100509.31
2022-08-18T01:41:54.099Z,100513.31
2022-08-18T01:44:59.426Z,100514.31
2022-08-18T01:48:05.761Z,100513.41
2022-08-18T01:51:13.708Z,100509.56
2022-08-18T01:54:19.506Z,100518.97
2022-08-18T01:57:24.982Z,100516.50
2022-08-18T02:00:30.739Z,100517.00
2022-08-18T02:03:36.217Z,100516.41
2022-08-18T02:06:46.514Z,100518.31
2022-08-18T02:09:53.931Z,100519.63
2022-08-18T02:12:59.740Z,100518.00
2022-08-18T02:16:05.597Z,100516.09
2022-08-18T02:19:12.498Z,100507.41
2022-08-18T02:22:18.301Z,100503.78
2022-08-18T02:25:24.259Z,100515.06
2022-08-18T02:28:30.742Z,100518.59
2022-08-18T02:31:36.325Z,100518.63
2022-08-18T02:34:42.938Z,100520.63
2022-08-18T02:41:12.938Z,100523.47
2022-08-18T02:44:18.592Z,100523.16
2022-08-18T02:47:24.194Z,100535.28
2022-08-18T02:50:29.823Z,100524.13
2022-08-18T02:53:35.433Z,100524.25
2022-08-18T02:56:42.608Z,100516.78
2022-08-18T02:59:48.465Z,100519.41
2022-08-18T03:02:54.794Z,100510.13
2022-08-18T03:06:00.663Z,100517.66
2022-08-18T03:09:06.645Z,100529.16
2022-08-18T03:12:12.255Z,100531.19
2022-08-18T03:15:17.657Z,100516.28
2022-08-18T03:18:23.331Z,100519.47
2022-08-18T03:21:28.777Z,100512.41
2022-08-18T03:24:35.229Z,100511.84
2022-08-18T03:27:40.672Z,100525.91
2022-08-18T03:30:46.275Z,100526.75
2022-08-18T03:33:53.808Z,100527.56
2022-08-18T03:36:59.974Z,100524.03
2022-08-18T03:40:06.699Z,100531.09
2022-08-18T03:43:50.220Z,100541.19
2022-08-18T03:46:38.186Z,100544.47
2022-08-18T03:49:44.239Z,100552.13
2022-08-18T03:52:50.026Z,100553.72
2022-08-18T03:55:55.630Z,100551.03
2022-08-18T03:59:01.499Z,100551.63
2022-08-18T04:02:07.031Z,100555.97
2022-08-18T04:05:14.152Z,100559.25
2022-08-18T04:08:19.448Z,100559.84
2022-08-18T04:11:24.966Z,100568.06
2022-08-18T04:14:31.295Z,100562.16
2022-08-18T04:17:37.061Z,100567.91
2022-08-18T04:21:02.469Z,100553.09
2022-08-18T04:24:08.490Z,100559.16
2022-08-18T04:27:13.976Z,100551.97
2022-08-18T04:30:19.582Z,100553.22
2022-08-18T04:33:25.274Z,100554.16
2022-08-18T04:36:31.184Z,100553.25
2022-08-18T04:39:38.239Z,100558.59
2022-08-18T04:42:44.957Z,100564.47
2022-08-18T04:45:51.323Z,100565.13
2022-08-18T04:48:59.277Z,100571.78
2022-08-18T04:52:38.137Z,100570.56
2022-08-18T04:55:46.654Z,100572.13
2022-08-18T04:58:52.309Z,100573.91
2022-08-18T05:02:00.200Z,100568.41
2022-08-18T05:05:11.572Z,100571.34
2022-08-18T05:08:16.876Z,100569.69
2022-08-18T05:11:22.765Z,100571.50
2022-08-18T05:14:28.063Z,100579.56
2022-08-18T05:17:33.539Z,100577.94
2022-08-18T05:20:40.754Z,100585.91
2022-08-18T05:23:46.196Z,100586.59
2022-08-18T05:26:53.441Z,100586.13
2022-08-18T05:29:58.967Z,100586.28
2022-08-18T05:33:04.700Z,100589.59
2022-08-18T05:36:10.121Z,100594.56
2022-08-18T05:39:15.958Z,100595.81
2022-08-18T05:42:29.859Z,100587.88
2022-08-18T05:45:35.619Z,100583.94
2022-08-18T05:48:43.206Z,100588.66
2022-08-18T05:51:50.502Z,100595.69
2022-08-18T05:55:13.605Z,100585.78
2022-08-18T05:58:19.213Z,100591.31
2022-08-18T06:01:24.905Z,100583.22
2022-08-18T06:04:31.290Z,100585.75
2022-08-18T06:07:42.873Z,100602.16
2022-08-18T06:10:50.839Z,100603.59
2022-08-18T06:13:59.992Z,100595.44
2022-08-18T06:17:06.126Z,100598.44
2022-08-18T06:20:12.104Z,100601.75
2022-08-18T06:23:37.733Z,100601.19
2022-08-18T06:26:43.217Z,100584.78
2022-08-18T06:29:50.426Z,100592.91
2022-08-18T06:32:59.235Z,100580.31
2022-08-18T06:36:05.123Z,100593.63
2022-08-18T06:39:11.165Z,100588.59
2022-08-18T06:42:16.882Z,100582.75
2022-08-18T06:45:23.387Z,100602.44
2022-08-18T06:48:39.385Z,100591.91
2022-08-18T06:51:45.147Z,100588.09
2022-08-18T06:54:51.541Z,100604.22
2022-08-18T06:57:57.889Z,100611.78
2022-08-18T07:01:03.775Z,100616.59
2022-08-18T07:04:09.452Z,100623.50
2022-08-18T07:07:15.005Z,100616.50
2022-08-18T07:10:20.909Z,100612.00
2022-08-18T07:13:27.033Z,100607.06
2022-08-18T07:16:57.620Z,100602.13
2022-08-18T07:20:05.318Z,100603.72
2022-08-18T07:23:10.999Z,100592.97
2022-08-18T07:26:16.806Z,100594.53
2022-08-18T07:29:22.654Z,100594.00
2022-08-18T07:32:28.450Z,100595.75
2022-08-18T07:35:34.052Z,100582.97
2022-08-18T07:38:45.667Z,100591.41
2022-08-18T07:41:54.369Z,100601.94
2022-08-18T07:45:00.407Z,100607.56
2022-08-18T07:48:27.352Z,100608.13
2022-08-18T07:51:37.358Z,100609.81
2022-08-18T07:54:51.113Z,100610.69
2022-08-18T07:57:56.967Z,100616.25
2022-08-18T08:01:03.152Z,100611.38
2022-08-18T08:04:08.963Z,100610.06
2022-08-18T08:07:30.025Z,100602.94
2022-08-18T08:10:45.884Z,100601.66
2022-08-18T08:13:55.578Z,100600.13
2022-08-18T08:17:01.581Z,100594.75
2022-08-18T08:20:08.676Z,100591.91
2022-08-18T08:23:17.441Z,100586.00
2022-08-18T08:29:42.602Z,100569.84
2022-08-18T08:32:48.410Z,100571.88
2022-08-18T08:35:57.377Z,100585.63
2022-08-18T08:42:44.737Z,100581.63
2022-08-18T08:45:50.646Z,100588.22
2022-08-18T08:49:00.026Z,100582.88
2022-08-18T08:52:05.861Z,100587.03
2022-08-18T08:55:11.441Z,100586.94
2022-08-18T08:58:16.971Z,100581.63
2022-08-18T09:01:22.987Z,100580.69
2022-08-18T09:04:28.760Z,100569.31
2022-08-18T09:07:35.724Z,100571.25
2022-08-18T09:10:43.922Z,100567.03
2022-08-18T09:14:04.627Z,100562.44
2022-08-18T09:17:09.883Z,100571.56
2022-08-18T09:20:16.845Z,100571.94
2022-08-18T09:23:22.186Z,100563.97
2022-08-18T09:26:28.065Z,100569.16
2022-08-18T09:29:44.282Z,100561.22
2022-08-18T09:32:50.223Z,100542.72
2022-08-18T09:35:55.806Z,100541.59
2022-08-18T09:39:23.160Z,100529.25
2022-08-18T09:42:29.967Z,100514.31
2022-08-18T09:45:42.846Z,100518.84
2022-08-18T09:48:50.135Z,100531.63
2022-08-18T09:52:03.230Z,100534.84
2022-08-18T09:55:08.720Z,100524.75
2022-08-18T10:01:25.093Z,100528.75
2022-08-18T10:04:30.593Z,100538.81
2022-08-18T10:07:43.555Z,100533.50
2022-08-18T10:14:24.129Z,100532.97
2022-08-18T10:17:29.833Z,100526.53
2022-08-18T10:20:37.743Z,100520.66
2022-08-18T10:23:49.462Z,100522.75
2022-08-18T10:27:04.270Z,100520.66
2022-08-18T10:30:12.226Z,100518.00
2022-08-18T10:33:18.643Z,100523.22
2022-08-18T10:36:24.461Z,100513.78
2022-08-18T10:39:39.732Z,100512.31
2022-08-18T10:42:48.696Z,100512.59
2022-08-18T10:46:24.978Z,100508.66
2022-08-18T10:49:26.027Z,100518.66
2022-08-18T10:52:33.899Z,100512.56
2022-08-18T10:55:47.710Z,100510.75
2022-08-18T10:58:54.660Z,100514.59
2022-08-18T11:02:00.478Z,100513.09
2022-08-18T11:05:09.831Z,100509.38
2022-08-18T11:11:52.908Z,100505.38
2022-08-18T11:15:22.376Z,100503.03
2022-08-18T11:18:32.570Z,100503.16
2022-08-18T11:21:43.677Z,100504.97
2022-08-18T11:24:49.823Z,100507.06
2022-08-18T11:27:56.543Z,100500.56
2022-08-18T11:31:02.340Z,100495.13
2022-08-18T11:34:28.869Z,100498.94
2022-08-18T11:37:49.578Z,100497.31
2022-08-18T11:41:10.488Z,100496.00
2022-08-18T11:44:17.322Z,100489.53
2022-08-18T11:47:27.514Z,100481.94
2022-08-18T11:50:35.337Z,100489.41
2022-08-18T11:53:43.128Z,100488.41
2022-08-18T11:56:50.010Z,100482.97
2022-08-18T12:03:21.722Z,100472.72
2022-08-18T12:06:29.907Z,100466.72
2022-08-18T12:10:16.312Z,100461.03
2022-08-18T12:13:01.343Z,100443.75
2022-08-18T12:16:07.164Z,100457.53
2022-08-18T12:19:12.850Z,100456.28
2022-08-18T12:22:18.520Z,100451.78
2022-08-18T12:25:26.804Z,100449.09
2022-08-18T12:28:34.146Z,100441.03
2022-08-18T12:31:42.595Z,100443.66
2022-08-18T12:34:54.171Z,100451.13
2022-08-18T12:38:05.094Z,100450.16
2022-08-18T12:41:23.595Z,100452.75
2022-08-18T12:44:29.512Z,100440.91
2022-08-18T12:47:35.947Z,100452.09
2022-08-18T12:50:54.192Z,100451.00
2022-08-18T12:54:12.682Z,100452.00
2022-08-18T12:57:33.266Z,100449.94
2022-08-18T13:00:44.001Z,100449.94
2022-08-18T13:03:52.605Z,100446.22
2022-08-18T13:07:16.356Z,100442.91
2022-08-18T13:10:45.794Z,100440.66
2022-08-18T13:13:53.256Z,100446.38
2022-08-18T13:17:02.355Z,100440.69
2022-08-18T13:20:08.038Z,100437.50
2022-08-18T13:23:13.631Z,100434.88
2022-08-18T13:26:24.865Z,100422.47
2022-08-18T13:29:33.272Z,100421.09
2022-08-18T13:32:47.272Z,100423.38
2022-08-18T13:39:34.528Z,100427.19
2022-08-18T13:42:51.070Z,100437.78
2022-08-18T13:45:57.747Z,100446.38
2022-08-18T13:49:03.447Z,100445.38
2022-08-18T13:52:16.702Z,100450.94
2022-08-18T13:55:46.513Z,100440.97
2022-08-18T13:58:53.804Z,100434.16
2022-08-18T14:01:59.371Z,100440.56
2022-08-18T14:05:08.253Z,100440.34
2022-08-18T14:08:19.022Z,100424.25
2022-08-18T14:11:27.289Z,100418.94
2022-08-18T14:14:34.034Z,100409.78
2022-08-18T14:17:39.289Z,100403.06
2022-08-18T14:21:02.644Z,100403.50
2022-08-18T14:24:29.257Z,100402.09
2022-08-18T14:27:35.716Z,100398.34
2022-08-18T14:30:41.083Z,100397.84
2022-08-18T14:33:57.449Z,100400.97
2022-08-18T14:37:09.961Z,100405.09
2022-08-18T14:40:17.589Z,100394.63
2022-08-18T14:43:24.980Z,100388.97
2022-08-18T14:49:51.748Z,100402.81
2022-08-18T14:52:57.474Z,100403.94
2022-08-18T14:56:04.965Z,100404.97
2022-08-18T14:59:10.281Z,100396.78
2022-08-18T15:02:17.306Z,100407.75
2022-08-18T15:05:24.858Z,100416.00
2022-08-18T15:08:30.468Z,100423.00
2022-08-18T15:11:53.893Z,100415.84
2022-08-18T15:15:02.110Z,100419.59
2022-08-18T15:18:08.182Z,100410.22
2022-08-18T15:21:35.305Z,100401.56
2022-08-18T15:25:03.011Z,100411.94
2022-08-18T15:28:16.271Z,100415.88
2022-08-18T15:34:51.168Z,100407.00
2022-08-18T15:37:57.189Z,100396.72
2022-08-18T15:41:06.247Z,100400.28
2022-08-18T15:44:15.125Z,100395.41
2022-08-18T15:47:21.236Z,100385.13
2022-08-18T15:50:26.687Z,100377.75
2022-08-18T15:53:35.265Z,100383.84
2022-08-18T15:56:45.968Z,100378.75
2022-08-18T16:00:03.603Z,100371.13
2022-08-18T16:03:09.551Z,100368.72
2022-08-18T16:06:14.882Z,100368.94
2022-08-18T16:09:25.842Z,100355.09
2022-08-18T16:12:32.326Z,100352.91
2022-08-18T16:15:38.169Z,100343.25
2022-08-18T16:18:46.310Z,100338.94
2022-08-18T16:21:52.350Z,100339.34
2022-08-18T16:24:58.364Z,100331.47
2022-08-18T16:28:07.068Z,100351.97
2022-08-18T16:31:16.198Z,100356.66
2022-08-18T16:34:21.661Z,100352.00
2022-08-18T16:37:27.118Z,100342.03
2022-08-18T16:40:32.767Z,100347.41
2022-08-18T16:43:41.527Z,100341.50
2022-08-18T16:46:47.211Z,100342.72
2022-08-18T16:50:12.995Z,100352.41
2022-08-18T16:53:18.497Z,100334.56
2022-08-18T16:56:24.228Z,100331.88
2022-08-18T16:59:47.562Z,100331.72
2022-08-18T17:03:10.844Z,100339.41
2022-08-18T17:06:16.340Z,100347.09
2022-08-18T17:09:22.418Z,100348.13
2022-08-18T17:12:28.410Z,100351.28
2022-08-18T17:15:49.705Z,100345.44
2022-08-18T17:18:55.049Z,100348.16
2022-08-18T17:22:22.422Z,100352.19
2022-08-18T17:25:27.875Z,100364.94
2022-08-18T17:28:39.871Z,100363.38
2022-08-18T17:31:55.922Z,100358.56
2022-08-18T17:35:01.776Z,100370.31
2022-08-18T17:38:07.121Z,100375.97
2022-08-18T17:41:12.715Z,100368.69
2022-08-18T17:44:18.333Z,100373.56
2022-08-18T17:47:24.255Z,100374.00
2022-08-18T17:50:47.681Z,100368.38
2022-08-18T17:53:53.367Z,100359.91
2022-08-18T17:57:00.306Z,100369.25
2022-08-18T18:00:06.529Z,100367.84
2022-08-18T18:03:13.573Z,100369.69
2022-08-18T18:06:19.106Z,100373.94
2022-08-18T18:09:24.762Z,100376.06
2022-08-18T18:12:31.849Z,100374.88
2022-08-18T18:15:40.164Z,100381.97
2022-08-18T18:18:46.097Z,100376.75
2022-08-18T18:22:04.888Z,100378.84
2022-08-18T18:25:11.189Z,100390.78
2022-08-18T18:28:17.068Z,100390.06
2022-08-18T18:31:22.715Z,100389.72
2022-08-18T18:34:28.234Z,100391.72
2022-08-18T18:37:33.787Z,100402.50
2022-08-18T18:40:38.940Z,100402.88
2022-08-18T18:43:46.245Z,100396.13
2022-08-18T18:46:53.407Z,100403.63
2022-08-18T18:50:06.999Z,100411.00
2022-08-18T18:53:18.894Z,100415.16
2022-08-18T18:56:26.131Z,100428.53
2022-08-18T18:59:35.642Z,100438.94
2022-08-18T19:02:46.432Z,100437.59
2022-08-18T19:05:52.578Z,100434.13
2022-08-18T19:08:59.717Z,100432.03
2022-08-18T19:12:05.417Z,100417.34
2022-08-18T19:15:14.716Z,100430.09
2022-08-18T19:18:21.822Z,100431.56
2022-08-18T19:22:03.968Z,100440.03
2022-08-18T19:24:53.476Z,100440.06
2022-08-18T19:27:59.328Z,100432.97
2022-08-18T19:31:04.938Z,100436.81
2022-08-18T19:34:11.701Z,100438.44
2022-08-18T19:37:26.744Z,100439.56
2022-08-18T19:40:37.383Z,100443.22
2022-08-18T19:43:43.029Z,100443.25
2022-08-18T19:46:49.474Z,100434.59
2022-08-18T19:49:54.792Z,100437.91
2022-08-18T19:53:00.321Z,100438.81
2022-08-18T19:56:07.388Z,100440.72
2022-08-18T19:59:18.022Z,100440.50
2022-08-18T20:02:25.403Z,100437.78
2022-08-18T20:05:54.474Z,100439.75
2022-08-18T20:09:00.144Z,100427.53
2022-08-18T20:12:07.607Z,100421.88
2022-08-18T20:15:12.835Z,100427.91
2022-08-18T20:18:21.288Z,100410.25
2022-08-18T20:21:39.773Z,100400.50
2022-08-18T20:24:49.007Z,100394.53
2022-08-18T20:27:55.464Z,100406.28
2022-08-18T20:31:02.766Z,100407.13
2022-08-18T20:34:14.105Z,100411.22
2022-08-18T20:37:37.647Z,100413.13
2022-08-18T20:40:59.724Z,100405.50
2022-08-18T20:44:05.158Z,100416.72
2022-08-18T20:47:10.862Z,100412.38
2022-08-18T20:50:16.530Z,100420.34
2022-08-18T20:53:22.037Z,100416.00
2022-08-18T20:56:32.752Z,100420.94
2022-08-18T20:59:49.542Z,100418.50
2022-08-18T21:02:56.667Z,100416.88
2022-08-18T21:06:01.960Z,100419.09
2022-08-18T21:09:07.615Z,100410.66
2022-08-18T21:12:14.759Z,100409.56
2022-08-18T21:15:20.405Z,100412.28
2022-08-18T21:18:25.857Z,100418.84
2022-08-18T21:21:31.147Z,100412.84
2022-08-18T21:24:36.746Z,100412.28
2022-08-18T21:27:49.683Z,100416.66
2022-08-18T21:30:55.749Z,100412.59
2022-08-18T21:34:01.043Z,100413.69
2022-08-18T21:37:10.530Z,100430.03
2022-08-18T21:40:15.996Z,100419.41
2022-08-18T21:43:23.123Z,100431.13
2022-08-18T21:46:28.834Z,100432.78
2022-08-18T21:49:34.257Z,100434.16
2022-08-18T21:52:40.068Z,100431.97
2022-08-18T21:55:45.616Z,100432.28
2022-08-18T21:58:51.453Z,100432.53
2022-08-18T22:01:57.505Z,100440.47
2022-08-18T22:05:03.465Z,100426.84
2022-08-18T22:08:09.148Z,100432.00
2022-08-18T22:11:57.228Z,100435.53
2022-08-18T22:14:58.750Z,100423.59
2022-08-18T22:18:05.525Z,100431.47
2022-08-18T22:21:12.208Z,100429.56
2022-08-18T22:24:19.597Z,100427.66
2022-08-18T22:27:24.830Z,100419.75
2022-08-18T22:30:30.347Z,100426.81
2022-08-18T22:33:35.809Z,100420.84
2022-08-18T22:36:41.512Z,100419.75
2022-08-18T22:39:47.385Z,100412.41
2022-08-18T22:42:53.462Z,100414.28
2022-08-18T22:45:59.246Z,100409.38
2022-08-18T22:49:04.604Z,100407.47
2022-08-18T22:52:12.185Z,100398.78
2022-08-18T22:55:21.783Z,100401.25
2022-08-18T22:58:29.866Z,100393.34
2022-08-18T23:01:35.696Z,100408.59
2022-08-18T23:04:42.316Z,100396.88
2022-08-18T23:07:47.730Z,100398.53
2022-08-18T23:10:57.010Z,100399.63
2022-08-18T23:14:03.222Z,100398.53
2022-08-18T23:17:08.894Z,100408.88
2022-08-18T23:20:18.022Z,100401.78
2022-08-18T23:23:26.171Z,100398.53
2022-08-18T23:26:32.368Z,100394.97
2022-08-18T23:29:37.684Z,100397.69
2022-08-18T23:32:43.125Z,100395.22
2022-08-18T23:35:48.994Z,100393.31
2022-08-18T23:38:54.665Z,100388.44
2022-08-18T23:42:01.258Z,100387.34
2022-08-18T23:45:06.572Z,100392.75
2022-08-18T23:48:12.133Z,100385.69
2022-08-18T23:51:17.379Z,100379.16
2022-08-18T23:54:22.657Z,100372.06
2022-08-18T23:57:28.098Z,100366.38
